Time;durP1;ratioP1;P1;durP2;ratioP2;P2;SDS_P1;SDS_P2;PMS_P1;PMS_P2;Temp;Humidity;BMP_temperature;BMP_pressure;BME280_temperature;BME280_humidity;BME280_pressure;Samples;Min_cycle;Max_cycle;Signal;HPM_P1;HPM_P2
2021/12/17 00:00:58;;;;;;;34.80;16.90;;;2.20;99.90;;;;;;5044338;28;20044;-60
2021/12/17 00:03:49;;;;;;;34.67;15.88;;;2.20;99.90;;;;;;5050759;28;20090;-59
2021/12/17 00:08:55;;;;;;;37.38;17.00;;;2.30;99.90;;;;;;5049100;28;20049;-59
2021/12/17 00:11:24;;;;;;;35.75;16.65;;;2.30;99.90;;;;;;5050876;28;20135;-59
2021/12/17 00:13:54;;;;;;;36.85;16.90;;;2.30;99.90;;;;;;5049001;28;20095;-60
2021/12/17 00:16:24;;;;;;;35.22;15.55;;;2.30;99.90;;;;;;5045939;28;20044;-60
2021/12/17 00:49:01;;;;;;;31.33;14.93;;;2.50;99.90;;;;;;5050828;28;20048;-60
2021/12/17 00:54:08;;;;;;;29.85;14.65;;;2.50;99.90;;;;;;5032842;28;20099;-60
2021/12/17 00:56:36;;;;;;;32.33;14.68;;;2.50;99.90;;;;;;5050237;28;20052;-60
2021/12/17 00:59:03;;;;;;;;;;;2.50;99.90;;;;;;5036075;28;20041;-59
2021/12/17 01:01:30;;;;;;;27.47;13.67;;;2.40;99.90;;;;;;5054342;28;19920;-60
2021/12/17 01:03:57;;;;;;;31.65;14.70;;;2.50;99.90;;;;;;5036098;28;20286;-60
2021/12/17 01:06:25;;;;;;;33.35;14.35;;;2.50;99.90;;;;;;5053913;28;20063;-60
2021/12/17 01:08:52;;;;;;;30.15;14.25;;;2.50;99.90;;;;;;5052594;28;20052;-60
2021/12/17 01:11:23;;;;;;;30.48;14.73;;;2.50;99.90;;;;;;5036139;28;20777;-60
2021/12/17 01:14:09;;;;;;;31.05;14.93;;;2.50;99.90;;;;;;5054033;28;20056;-60
2021/12/17 01:16:58;;;;;;;32.80;15.98;;;2.60;99.90;;;;;;5032361;28;20560;-59
2021/12/17 01:42:48;;;;;;;32.08;14.43;;;2.60;99.90;;;;;;5035447;28;20041;-60
2021/12/17 01:45:15;;;;;;;32.60;15.50;;;2.60;99.90;;;;;;5035052;28;20055;-60
2021/12/17 01:47:42;;;;;;;32.58;14.05;;;2.70;99.90;;;;;;5035402;28;20041;-60
2021/12/17 02:01:00;;;;;;;39.65;18.08;;;2.50;99.90;;;;;;5035465;28;20044;-60
2021/12/17 02:03:27;;;;;;;34.25;16.55;;;2.50;99.90;;;;;;5052666;28;20512;-60
2021/12/17 02:05:54;;;;;;;37.53;16.67;;;2.40;99.90;;;;;;5034997;28;20049;-60
2021/12/17 02:08:22;;;;;;;38.50;16.23;;;2.40;99.90;;;;;;5052813;28;20067;-59
2021/12/17 02:22:10;;;;;;;33.33;15.95;;;2.40;99.90;;;;;;5052643;28;20307;-59
2021/12/17 02:30:24;;;;;;;30.85;15.40;;;2.50;99.90;;;;;;5052709;28;20494;-60
2021/12/17 02:32:51;;;;;;;31.23;15.55;;;2.50;99.90;;;;;;5034588;28;20049;-60
2021/12/17 02:37:52;;;;;;;30.95;14.35;;;2.50;99.90;;;;;;5051864;28;20047;-60
2021/12/17 02:46:29;;;;;;;25.50;12.50;;;2.50;99.90;;;;;;5034040;28;20077;-59
2021/12/17 02:48:56;;;;;;;22.48;12.00;;;2.40;99.90;;;;;;5034245;28;20041;-59
2021/12/17 02:51:25;;;;;;;26.85;12.50;;;2.40;99.90;;;;;;5034341;28;20091;-59
2021/12/17 02:53:53;;;;;;;26.40;12.80;;;2.40;99.90;;;;;;5033912;28;20640;-59
2021/12/17 02:56:21;;;;;;;22.63;11.30;;;2.40;99.90;;;;;;5033927;28;20493;-60
2021/12/17 02:58:49;;;;;;;21.83;11.75;;;2.40;99.90;;;;;;5033798;28;20045;-59
2021/12/17 03:01:16;;;;;;;23.50;11.25;;;2.40;99.90;;;;;;5051904;28;20054;-59
2021/12/17 03:03:44;;;;;;;;;;;2.40;99.90;;;;;;5034342;28;20045;-60
2021/12/17 03:06:11;;;;;;;28.88;11.73;;;2.40;99.90;;;;;;5051611;28;20019;-60
2021/12/17 03:08:38;;;;;;;24.35;12.20;;;2.40;99.90;;;;;;5033744;28;20460;-60
2021/12/17 03:11:05;;;;;;;23.33;12.38;;;2.40;99.90;;;;;;5033946;28;20083;-59
2021/12/17 03:13:35;;;;;;;27.17;12.82;;;2.40;99.90;;;;;;5051954;28;20072;-60
2021/12/17 03:24:30;;;;;;;28.17;13.55;;;2.20;99.90;;;;;;5073927;28;20126;-63
2021/12/17 03:26:57;;;;;;;25.58;13.82;;;2.20;99.90;;;;;;5091086;28;20412;-63
2021/12/17 03:29:24;;;;;;;28.33;13.60;;;2.20;99.90;;;;;;5091813;28;20035;-63
2021/12/17 03:31:59;;;;;;;29.08;14.75;;;2.10;99.90;;;;;;5073447;28;20059;-63
2021/12/17 03:34:26;;;;;;;29.52;14.65;;;2.20;99.90;;;;;;5073512;28;20040;-63
2021/12/17 03:36:57;;;;;;;26.70;13.52;;;2.20;99.90;;;;;;5072875;28;20050;-63
2021/12/17 03:39:30;;;;;;;28.58;14.15;;;2.20;99.90;;;;;;5073672;28;20047;-63
2021/12/17 03:42:00;;;;;;;32.20;14.25;;;2.20;99.90;;;;;;5073154;28;20044;-63
2021/12/17 03:44:34;;;;;;;26.08;14.02;;;2.20;99.90;;;;;;5073543;28;20040;-62
2021/12/17 03:47:03;;;;;;;22.88;12.65;;;2.30;99.90;;;;;;5091188;28;20044;-63
2021/12/17 03:49:52;;;;;;;28.02;13.55;;;2.30;99.90;;;;;;5073469;28;20044;-63
2021/12/17 03:52:20;;;;;;;29.17;14.13;;;2.30;99.90;;;;;;5073202;28;20052;-63
2021/12/17 03:54:48;;;;;;;28.92;13.65;;;2.40;99.90;;;;;;5073635;28;20570;-63
2021/12/17 03:57:18;;;;;;;;;;;2.30;99.90;;;;;;5073502;28;20059;-63
2021/12/17 03:59:49;;;;;;;29.95;14.05;;;2.30;99.90;;;;;;5073062;28;19920;-63
2021/12/17 04:02:20;;;;;;;30.95;14.27;;;2.30;99.90;;;;;;5073560;28;20048;-63
2021/12/17 04:04:48;;;;;;;26.77;12.38;;;2.30;99.90;;;;;;5073192;28;20550;-63
2021/12/17 04:07:34;;;;;;;31.33;14.43;;;2.30;99.90;;;;;;5091395;28;20048;-62
2021/12/17 04:10:41;;;;;;;32.58;15.55;;;2.20;99.90;;;;;;5091027;28;20058;-63
2021/12/17 04:15:58;;;;;;;30.42;14.43;;;2.30;99.90;;;;;;5072669;28;20101;-63
2021/12/17 04:18:26;;;;;;;31.83;15.38;;;2.30;99.90;;;;;;5073011;28;20512;-63
2021/12/17 04:20:53;;;;;;;30.45;14.05;;;2.30;99.90;;;;;;5090815;28;20119;-62
2021/12/17 04:23:22;;;;;;;26.63;13.88;;;2.30;99.90;;;;;;5073261;28;20040;-62
2021/12/17 04:25:50;;;;;;;27.58;13.15;;;2.30;99.90;;;;;;5072466;28;20059;-63
2021/12/17 04:28:18;;;;;;;;;;;2.30;99.90;;;;;;5073588;28;20047;-63
2021/12/17 04:30:46;;;;;;;24.60;12.90;;;2.30;99.90;;;;;;5089533;28;19931;-63
2021/12/17 04:33:13;;;;;;;26.00;14.07;;;2.40;99.90;;;;;;5093330;28;20601;-63
2021/12/17 04:35:41;;;;;;;24.60;12.63;;;2.40;99.90;;;;;;5076705;28;20400;-63
2021/12/17 04:38:11;;;;;;;32.05;15.27;;;2.40;99.90;;;;;;5094523;28;20859;-63
2021/12/17 04:40:42;;;;;;;26.67;13.65;;;2.40;99.90;;;;;;5076997;28;20038;-63
2021/12/17 04:43:22;;;;;;;28.27;13.90;;;2.40;99.90;;;;;;5076376;28;20055;-63
2021/12/17 04:46:14;;;;;;;26.15;12.60;;;2.30;99.90;;;;;;5076444;28;20131;-62
2021/12/17 04:59:48;;;;;;;26.52;14.63;;;2.30;99.90;;;;;;5076331;28;20044;-63
2021/12/17 05:02:17;;;;;;;28.67;13.88;;;2.30;99.90;;;;;;5076495;28;20079;-63
2021/12/17 05:04:54;;;;;;;29.13;14.13;;;2.40;99.90;;;;;;5076134;28;20454;-63
2021/12/17 05:07:24;;;;;;;25.63;13.35;;;2.40;99.90;;;;;;5075737;28;20082;-63
2021/12/17 05:10:05;;;;;;;25.73;13.18;;;2.40;99.90;;;;;;5075980;28;20048;-62
2021/12/17 05:21:09;;;;;;;22.00;12.07;;;2.40;99.90;;;;;;5031292;28;20521;-62
2021/12/17 05:23:46;;;;;;;23.90;12.38;;;2.40;99.90;;;;;;5068740;28;20040;-63
2021/12/17 05:26:18;;;;;;;23.55;11.50;;;2.40;99.90;;;;;;5075297;28;20079;-62
2021/12/17 05:28:53;;;;;;;22.55;12.57;;;2.40;99.90;;;;;;5075987;28;20071;-63
2021/12/17 05:31:25;;;;;;;22.20;12.20;;;2.40;99.90;;;;;;5086151;28;20048;-62
2021/12/17 05:33:56;;;;;;;23.10;12.10;;;2.40;99.90;;;;;;5096184;28;20403;-62
2021/12/17 05:36:29;;;;;;;22.30;11.35;;;2.50;99.90;;;;;;5095273;28;20044;-63
2021/12/17 05:39:03;;;;;;;20.60;11.30;;;2.50;99.90;;;;;;5096020;28;20070;-63
2021/12/17 05:41:33;;;;;;;22.10;12.18;;;2.50;99.90;;;;;;5104115;27;20134;-62
2021/12/17 05:44:19;;;;;;;22.48;10.90;;;2.50;99.90;;;;;;5134259;27;20051;-63
2021/12/17 05:46:49;;;;;;;20.33;11.52;;;2.50;99.90;;;;;;5115720;27;20051;-62
2021/12/17 05:49:22;;;;;;;20.65;11.70;;;2.40;99.90;;;;;;5115901;27;20056;-62
2021/12/17 05:51:50;;;;;;;21.80;11.13;;;2.40;99.90;;;;;;5106835;28;20048;-62
2021/12/17 05:54:17;;;;;;;19.77;11.38;;;2.40;99.90;;;;;;5078784;28;20090;-62
2021/12/17 05:56:45;;;;;;;19.75;11.15;;;2.40;99.90;;;;;;5095003;28;20134;-62
2021/12/17 05:59:14;;;;;;;23.55;12.27;;;2.50;99.90;;;;;;5095249;28;20135;-62
2021/12/17 06:01:42;;;;;;;24.45;12.50;;;2.50;99.90;;;;;;5101526;27;20384;-63
2021/12/17 06:04:09;;;;;;;22.80;12.02;;;2.50;99.90;;;;;;5133939;27;20031;-63
2021/12/17 06:06:52;;;;;;;22.95;12.77;;;2.40;99.90;;;;;;5115099;27;20047;-62
2021/12/17 06:09:19;;;;;;;22.83;12.52;;;2.50;99.90;;;;;;5133806;27;20033;-63
2021/12/17 06:11:46;;;;;;;24.90;12.90;;;2.50;99.90;;;;;;5114953;27;20043;-63
2021/12/17 06:14:16;;;;;;;20.35;11.30;;;2.50;99.90;;;;;;5124640;27;20050;-62
2021/12/17 06:16:43;;;;;;;22.98;11.82;;;2.40;99.90;;;;;;5115296;27;20449;-62
2021/12/17 06:19:17;;;;;;;22.55;12.52;;;2.40;99.90;;;;;;5095081;28;20074;-62
2021/12/17 06:21:47;;;;;;;23.67;12.52;;;2.40;99.90;;;;;;5094752;28;20047;-57
2021/12/17 06:24:15;;;;;;;20.45;11.63;;;2.40;99.90;;;;;;5078245;28;20044;-55
2021/12/17 06:26:42;;;;;;;22.25;12.40;;;2.40;99.90;;;;;;5096864;27;20132;-55
2021/12/17 06:29:09;;;;;;;27.80;12.75;;;2.50;99.90;;;;;;5103885;27;20491;-57
2021/12/17 06:31:36;;;;;;;25.48;12.27;;;2.50;99.90;;;;;;5115099;27;20280;-56
2021/12/17 06:34:03;;;;;;;23.98;13.48;;;2.40;99.90;;;;;;5115383;27;20073;-57
2021/12/17 06:36:32;;;;;;;25.80;13.38;;;2.40;99.90;;;;;;5114627;27;20472;-55
2021/12/17 06:38:59;;;;;;;24.33;12.63;;;2.30;99.90;;;;;;5114748;27;20042;-57
2021/12/17 06:41:28;;;;;;;26.08;14.07;;;2.40;99.90;;;;;;5115289;27;20495;-55
2021/12/17 06:43:58;;;;;;;24.02;13.07;;;2.40;99.90;;;;;;5114816;27;20039;-56
2021/12/17 06:46:34;;;;;;;26.95;13.75;;;2.40;99.90;;;;;;5114723;27;20039;-55
2021/12/17 06:49:22;;;;;;;29.35;14.10;;;2.30;99.90;;;;;;5114618;27;20043;-57
2021/12/17 07:10:14;;;;;;;24.48;11.85;;;2.50;99.90;;;;;;5114184;27;19926;-54
2021/12/17 07:32:17;;;;;;;23.90;12.77;;;2.50;99.90;;;;;;5113828;27;20043;-53
2021/12/17 07:34:41;;;;;;;27.98;14.05;;;2.50;99.90;;;;;;5113081;27;20054;-52
2021/12/17 07:39:40;;;;;;;26.45;12.20;;;2.50;99.90;;;;;;5093728;28;20525;-57
2021/12/17 07:42:13;;;;;;;25.77;13.25;;;2.50;99.90;;;;;;5093427;28;20044;-57
2021/12/17 07:44:48;;;;;;;27.80;12.85;;;2.50;99.90;;;;;;5093911;28;20101;-54
2021/12/17 07:47:18;;;;;;;31.00;14.88;;;2.50;99.90;;;;;;5111639;28;20063;-57
2021/12/17 07:50:14;;;;;;;27.55;13.55;;;2.50;99.90;;;;;;5111845;28;20057;-56
2021/12/17 07:53:02;;;;;;;37.83;17.15;;;2.50;99.90;;;;;;5093508;28;20513;-55
2021/12/17 07:55:32;;;;;;;30.58;14.05;;;2.50;99.90;;;;;;5093237;28;20047;-56
2021/12/17 07:58:03;;;;;;;30.52;15.52;;;2.50;99.90;;;;;;5093609;28;20407;-55
2021/12/17 08:00:35;;;;;;;26.27;13.57;;;2.50;99.90;;;;;;5093312;28;20050;-56
2021/12/17 08:03:04;;;;;;;27.70;13.13;;;2.60;99.90;;;;;;5093379;28;20051;-54
2021/12/17 08:05:53;;;;;;;28.75;13.50;;;2.60;99.90;;;;;;5092771;28;20100;-54
2021/12/17 08:08:22;;;;;;;24.10;12.77;;;2.60;99.90;;;;;;5097649;28;20043;-54
2021/12/17 08:10:59;;;;;;;28.25;14.30;;;2.60;99.90;;;;;;5097546;28;20051;-54
2021/12/17 08:13:30;;;;;;;31.55;14.40;;;2.60;99.90;;;;;;5097765;28;20138;-55
2021/12/17 08:24:35;;;;;;;25.35;12.95;;;2.70;99.90;;;;;;5097530;28;20483;-54
2021/12/17 08:32:06;;;;;;;23.92;13.40;;;2.90;99.90;;;;;;5096962;28;20040;-51
2021/12/17 08:34:47;;;;;;;25.23;12.32;;;3.00;99.90;;;;;;5099125;28;20054;-57
2021/12/17 08:37:15;;;;;;;25.08;12.98;;;2.90;99.90;;;;;;5095679;28;20142;-54
2021/12/17 08:39:45;;;;;;;23.30;11.82;;;3.00;99.90;;;;;;5096524;28;20050;-57
2021/12/17 08:42:26;;;;;;;22.83;10.63;;;2.90;99.90;;;;;;5096204;28;20478;-57
2021/12/17 08:44:53;;;;;;;19.02;10.32;;;2.90;99.90;;;;;;5096957;28;20130;-57
2021/12/17 08:47:47;;;;;;;23.52;11.20;;;2.80;99.90;;;;;;5110578;28;20050;-55
2021/12/17 08:50:25;;;;;;;24.15;12.38;;;2.90;99.90;;;;;;5096994;28;20043;-56
2021/12/17 08:52:55;;;;;;;21.55;11.18;;;2.90;99.90;;;;;;5096918;28;20101;-55
2021/12/17 08:55:22;;;;;;;21.92;12.00;;;3.00;99.90;;;;;;5096114;28;20047;-55
2021/12/17 08:57:49;;;;;;;21.13;11.50;;;3.00;99.90;;;;;;5096536;28;20063;-55
2021/12/17 09:00:16;;;;;;;24.48;11.50;;;3.00;99.90;;;;;;5096282;28;20054;-54
2021/12/17 09:02:59;;;;;;;23.88;11.95;;;2.90;99.90;;;;;;5096779;28;20130;-55
2021/12/17 09:05:46;;;;;;;22.60;11.68;;;2.90;99.90;;;;;;5114497;28;20062;-54
2021/12/17 09:08:20;;;;;;;28.55;12.60;;;3.00;99.90;;;;;;5095601;28;20039;-55
2021/12/17 09:10:55;;;;;;;22.13;11.18;;;3.00;99.90;;;;;;5095852;28;20396;-56
2021/12/17 09:13:33;;;;;;;22.58;11.15;;;3.10;99.90;;;;;;5096062;28;20043;-52
2021/12/17 09:16:07;;;;;;;25.05;12.05;;;3.10;99.90;;;;;;5095259;28;20450;-55
2021/12/17 09:22:52;;;;;;;26.27;13.07;;;3.10;99.90;;;;;;5114125;28;20119;-53
2021/12/17 09:25:21;;;;;;;22.45;11.10;;;3.20;99.90;;;;;;5113048;28;20446;-53
2021/12/17 09:27:53;;;;;;;22.80;11.80;;;3.20;99.90;;;;;;5112791;28;20050;-49
2021/12/17 09:30:28;;;;;;;24.25;12.70;;;3.20;99.90;;;;;;5114594;28;20048;-52
2021/12/17 09:32:55;;;;;;;26.17;12.70;;;3.30;99.90;;;;;;5114186;28;20100;-52
2021/12/17 09:35:24;;;;;;;23.90;11.90;;;3.20;99.90;;;;;;5096782;28;20035;-50
2021/12/17 09:37:51;;;;;;;21.10;11.45;;;3.20;99.90;;;;;;5094182;28;20564;-49
2021/12/17 09:40:18;;;;;;;22.60;12.48;;;3.20;99.90;;;;;;5102609;28;20127;-50
2021/12/17 09:42:45;;;;;;;20.58;10.82;;;3.00;99.90;;;;;;5093387;28;20036;-49
2021/12/17 09:45:14;;;;;;;25.70;12.02;;;3.10;99.90;;;;;;5093444;28;20044;-50
2021/12/17 09:47:42;;;;;;;25.33;12.07;;;3.20;99.90;;;;;;5093564;28;20554;-51
2021/12/17 09:50:10;;;;;;;23.80;12.43;;;3.20;99.90;;;;;;5092950;28;20043;-49
2021/12/17 09:52:37;;;;;;;24.13;12.50;;;3.30;99.90;;;;;;5097894;28;20040;-52
2021/12/17 09:55:06;;;;;;;25.35;13.15;;;3.30;99.90;;;;;;5113476;27;20115;-50
2021/12/17 09:57:36;;;;;;;26.80;13.85;;;3.40;99.90;;;;;;5113458;28;20049;-53
2021/12/17 10:00:28;;;;;;;25.50;14.40;;;3.30;99.90;;;;;;5111945;28;20032;-51
2021/12/17 10:02:59;;;;;;;26.42;12.90;;;3.30;99.90;;;;;;5113396;28;20127;-51
2021/12/17 10:05:35;;;;;;;26.30;12.85;;;3.20;99.90;;;;;;5112118;28;20325;-51
2021/12/17 10:08:22;;;;;;;23.55;12.57;;;3.10;99.90;;;;;;5112955;28;20100;-52
2021/12/17 10:11:00;;;;;;;22.67;11.88;;;3.20;99.90;;;;;;5111526;28;20492;-50
2021/12/17 10:13:33;;;;;;;28.10;13.50;;;3.40;99.90;;;;;;5112690;28;20032;-51
2021/12/17 10:16:06;;;;;;;25.50;13.40;;;3.50;99.90;;;;;;5113067;28;20590;-50
2021/12/17 10:18:41;;;;;;;24.17;12.88;;;3.50;99.90;;;;;;5112713;28;20483;-53
2021/12/17 10:21:16;;;;;;;25.60;12.65;;;3.60;99.90;;;;;;5113408;28;20119;-54
2021/12/17 10:23:44;;;;;;;27.15;12.85;;;3.70;99.90;;;;;;5113058;28;20108;-53
2021/12/17 10:26:12;;;;;;;23.33;12.43;;;3.60;99.90;;;;;;5112959;28;20122;-49
2021/12/17 10:28:55;;;;;;;26.10;13.35;;;3.50;99.90;;;;;;5112910;28;20096;-51
2021/12/17 10:31:25;;;;;;;22.35;11.82;;;3.50;99.90;;;;;;5111900;28;20131;-53
2021/12/17 10:33:54;;;;;;;28.52;13.77;;;3.50;99.90;;;;;;5112818;28;20044;-53
2021/12/17 10:36:30;;;;;;;26.08;12.75;;;3.50;99.90;;;;;;5112663;28;20044;-51
2021/12/17 10:39:30;;;;;;;21.55;11.10;;;3.50;99.90;;;;;;5112848;28;20151;-51
2021/12/17 10:41:57;;;;;;;22.48;11.23;;;3.40;99.90;;;;;;5113003;28;20092;-51
2021/12/17 10:44:27;;;;;;;26.17;12.63;;;3.50;99.90;;;;;;5112709;28;20532;-51
2021/12/17 10:47:09;;;;;;;24.13;11.95;;;3.60;99.90;;;;;;5112527;28;20047;-53
2021/12/17 10:49:35;;;;;;;21.60;12.20;;;3.70;99.90;;;;;;5112599;28;20495;-52
2021/12/17 10:52:08;;;;;;;24.35;12.07;;;3.90;99.90;;;;;;5112879;28;20043;-52
2021/12/17 10:54:35;;;;;;;28.02;13.48;;;3.80;99.90;;;;;;5112671;28;20081;-51
2021/12/17 10:57:07;;;;;;;25.40;12.55;;;3.60;99.90;;;;;;5111850;28;20104;-52
2021/12/17 10:59:35;;;;;;;26.38;13.95;;;3.70;99.90;;;;;;5112766;28;20058;-51
2021/12/17 11:02:10;;;;;;;26.08;14.25;;;3.70;99.90;;;;;;5110985;28;20066;-53
2021/12/17 11:04:46;;;;;;;23.08;12.35;;;3.80;99.90;;;;;;5112719;28;20540;-51
2021/12/17 11:07:18;;;;;;;30.20;14.95;;;3.90;99.90;;;;;;5111570;27;20039;-51
2021/12/17 11:09:50;;;;;;;30.77;16.00;;;3.90;99.90;;;;;;5112409;28;20044;-52
2021/12/17 11:12:33;;;;;;;31.00;15.30;;;3.70;99.90;;;;;;5112070;28;20048;-53
2021/12/17 11:15:21;;;;;;;31.13;15.18;;;4.30;99.90;;;;;;5112904;28;20035;-52
2021/12/17 11:17:49;;;;;;;22.95;11.73;;;3.90;99.90;;;;;;5111887;28;20055;-48
2021/12/17 11:20:29;;;;;;;24.65;11.18;;;4.10;99.90;;;;;;5112227;28;20047;-52
2021/12/17 11:23:05;;;;;;;25.23;11.85;;;4.10;99.90;;;;;;5111766;28;20044;-51
2021/12/17 11:25:34;;;;;;;20.20;11.15;;;4.10;99.90;;;;;;5112009;28;20564;-51
2021/12/17 11:28:01;;;;;;;24.08;12.55;;;4.00;99.90;;;;;;5111604;28;20031;-53
2021/12/17 11:30:31;;;;;;;21.38;11.27;;;4.10;99.90;;;;;;5112173;28;20171;-51
2021/12/17 11:33:04;;;;;;;23.73;12.18;;;4.10;99.90;;;;;;5111921;28;20037;-51
2021/12/17 11:35:34;;;;;;;28.42;11.68;;;4.10;99.90;;;;;;5111730;28;20096;-52
2021/12/17 11:38:10;;;;;;;24.77;12.27;;;4.10;99.90;;;;;;5111983;28;20072;-52
2021/12/17 11:40:47;;;;;;;23.42;12.02;;;4.00;99.90;;;;;;5111856;28;20122;-50
2021/12/17 11:43:49;;;;;;;22.63;11.65;;;4.00;99.90;;;;;;5111941;28;20047;-51
2021/12/17 11:46:27;;;;;;;19.52;11.18;;;3.90;99.90;;;;;;5111582;28;20054;-53
2021/12/17 11:48:57;;;;;;;24.40;12.45;;;3.90;99.90;;;;;;5112079;28;20084;-52
2021/12/17 11:51:27;;;;;;;22.65;12.52;;;3.70;99.90;;;;;;5111742;28;20473;-50
2021/12/17 11:53:56;;;;;;;25.38;12.23;;;3.70;99.90;;;;;;5111791;28;20054;-52
2021/12/17 11:56:50;;;;;;;21.10;11.43;;;3.70;99.90;;;;;;5110887;28;20048;-52
2021/12/17 11:59:26;;;;;;;21.77;11.18;;;3.80;99.90;;;;;;5111723;28;20052;-51
2021/12/17 12:02:14;;;;;;;22.77;11.52;;;4.00;99.90;;;;;;5111411;28;20446;-52
2021/12/17 12:04:44;;;;;;;;;;;3.80;99.90;;;;;;5111982;28;20151;-51
2021/12/17 12:07:15;;;;;;;19.88;10.80;;;3.90;99.90;;;;;;5110936;28;19919;-51
2021/12/17 12:10:12;;;;;;;23.20;11.52;;;4.00;99.90;;;;;;5111802;28;20506;-50
2021/12/17 12:12:45;;;;;;;21.10;11.25;;;4.00;99.90;;;;;;5111423;28;20044;-51
2021/12/17 12:15:24;;;;;;;22.15;11.02;;;3.90;99.90;;;;;;5110606;28;20126;-51
2021/12/17 12:17:57;;;;;;;23.05;11.95;;;3.90;99.90;;;;;;5108948;28;20063;-51
2021/12/17 12:20:44;;;;;;;23.10;11.25;;;3.80;99.90;;;;;;5108666;28;20067;-51
2021/12/17 12:23:22;;;;;;;25.80;12.10;;;3.90;99.90;;;;;;5098820;28;20055;-52
2021/12/17 12:26:13;;;;;;;21.95;11.20;;;3.90;99.90;;;;;;5108853;28;20063;-53
2021/12/17 12:28:46;;;;;;;27.75;12.40;;;3.70;99.90;;;;;;5110035;28;20088;-51
2021/12/17 12:31:33;;;;;;;21.02;11.18;;;3.80;99.90;;;;;;5109671;28;20035;-51
2021/12/17 12:34:04;;;;;;;23.40;12.32;;;3.70;99.90;;;;;;5110788;28;20499;-53
2021/12/17 12:36:51;;;;;;;26.52;12.30;;;3.80;99.90;;;;;;5110587;28;20089;-50
2021/12/17 12:39:26;;;;;;;25.58;10.88;;;3.90;99.90;;;;;;5103987;28;20098;-48
2021/12/17 12:42:19;;;;;;;24.58;12.30;;;4.00;99.90;;;;;;5101364;28;20036;-52
2021/12/17 12:44:46;;;;;;;25.75;12.60;;;4.00;99.90;;;;;;5101231;28;20088;-52
2021/12/17 12:47:35;;;;;;;23.27;11.70;;;4.10;99.90;;;;;;5100562;28;20123;-55
2021/12/17 12:50:02;;;;;;;21.48;10.63;;;4.00;99.90;;;;;;5101530;28;20093;-53
2021/12/17 12:52:40;;;;;;;20.83;10.55;;;4.00;99.90;;;;;;5100594;28;20044;-51
2021/12/17 12:55:09;;;;;;;25.13;12.27;;;4.00;99.90;;;;;;5104799;28;20067;-52
2021/12/17 12:57:45;;;;;;;23.45;11.75;;;4.30;99.90;;;;;;5112966;28;20089;-53
2021/12/17 13:00:30;;;;;;;25.27;12.05;;;4.30;99.90;;;;;;5114228;28;20032;-50
2021/12/17 13:03:04;;;;;;;20.38;11.38;;;4.20;99.90;;;;;;5114182;27;20035;-50
2021/12/17 13:05:32;;;;;;;24.50;12.00;;;4.20;99.90;;;;;;5111899;28;20042;-51
2021/12/17 13:08:02;;;;;;;21.60;11.10;;;4.20;99.90;;;;;;5113995;28;21373;-52
2021/12/17 13:10:37;;;;;;;22.45;12.13;;;4.20;99.90;;;;;;5111847;28;20100;-53
2021/12/17 13:13:42;;;;;;;20.52;11.52;;;4.30;99.90;;;;;;5113796;28;20122;-53
2021/12/17 13:16:43;;;;;;;22.23;12.15;;;4.30;99.90;;;;;;5113710;28;20096;-51
2021/12/17 13:22:14;;;;;;;28.40;11.68;;;4.60;99.90;;;;;;5113928;28;20093;-51
2021/12/17 13:24:41;;;;;;;24.60;11.95;;;4.30;99.90;;;;;;5113204;28;20032;-51
2021/12/17 13:27:11;;;;;;;19.65;9.18;;;4.20;99.90;;;;;;5113330;28;20035;-50
2021/12/17 13:29:43;;;;;;;24.17;11.95;;;4.10;99.90;;;;;;5113525;28;20110;-53
2021/12/17 13:32:11;;;;;;;27.10;12.75;;;4.20;99.90;;;;;;5113668;28;20096;-52
2021/12/17 13:34:40;;;;;;;25.85;12.35;;;4.20;99.90;;;;;;5113247;28;20630;-52
2021/12/17 13:37:10;;;;;;;22.35;12.00;;;4.10;99.90;;;;;;5113108;28;20039;-53
2021/12/17 13:39:55;;;;;;;24.70;12.70;;;4.20;99.90;;;;;;5113055;28;20073;-53
2021/12/17 13:42:43;;;;;;;25.13;11.95;;;4.10;99.90;;;;;;5113144;28;20108;-51
2021/12/17 13:45:11;;;;;;;46.35;19.33;;;4.00;99.90;;;;;;5112567;28;20047;-55
2021/12/17 13:47:39;;;;;;;38.75;17.23;;;3.90;99.90;;;;;;5113368;28;20035;-54
2021/12/17 13:50:28;;;;;;;33.78;15.50;;;3.80;99.90;;;;;;5112873;28;20063;-52
2021/12/17 13:53:00;;;;;;;42.20;17.10;;;3.70;99.90;;;;;;5111930;28;20437;-51
2021/12/17 13:55:28;;;;;;;30.90;14.88;;;3.60;99.90;;;;;;5112498;28;20450;-55
2021/12/17 13:57:57;;;;;;;41.53;17.38;;;3.60;99.90;;;;;;5113079;28;20048;-52
2021/12/17 14:00:30;;;;;;;28.20;13.95;;;3.60;99.90;;;;;;5113116;28;20043;-50
2021/12/17 14:02:59;;;;;;;25.58;13.18;;;3.50;99.90;;;;;;5113538;27;20119;-52
2021/12/17 14:05:29;;;;;;;25.80;13.07;;;3.50;99.90;;;;;;5112997;28;20050;-54
2021/12/17 14:08:02;;;;;;;36.50;17.80;;;3.60;99.90;;;;;;5113408;28;20055;-54
2021/12/17 14:10:33;;;;;;;33.60;16.10;;;3.70;99.90;;;;;;5113929;28;20043;-51
2021/12/17 14:13:02;;;;;;;24.55;13.07;;;3.80;99.90;;;;;;5112277;28;20039;-51
2021/12/17 14:15:50;;;;;;;27.65;14.57;;;3.70;99.90;;;;;;5112242;28;20093;-53
2021/12/17 14:18:20;;;;;;;23.08;12.57;;;3.70;99.90;;;;;;5112364;28;20102;-53
2021/12/17 14:20:53;;;;;;;26.58;12.98;;;3.60;99.90;;;;;;5113504;28;20130;-51
2021/12/17 14:23:23;;;;;;;30.42;15.18;;;3.50;99.90;;;;;;5112987;28;20039;-51
2021/12/17 14:25:54;;;;;;;38.78;16.88;;;3.50;99.90;;;;;;5113003;28;20071;-51
2021/12/17 14:28:25;;;;;;;30.30;15.77;;;3.40;99.90;;;;;;5112842;28;20065;-51
2021/12/17 14:31:14;;;;;;;25.10;12.73;;;3.40;99.90;;;;;;5113305;28;20552;-52
2021/12/17 14:33:57;;;;;;;27.15;12.70;;;3.30;99.90;;;;;;5112709;28;20048;-52
2021/12/17 14:36:38;;;;;;;30.65;15.63;;;3.20;99.90;;;;;;5112958;28;20114;-52
2021/12/17 14:39:09;;;;;;;38.10;17.27;;;3.20;99.90;;;;;;5112211;28;20488;-52
2021/12/17 14:41:48;;;;;;;25.27;12.35;;;3.20;99.90;;;;;;5112625;28;20458;-51
2021/12/17 14:44:23;;;;;;;26.67;12.75;;;3.30;99.90;;;;;;5112199;28;20090;-52
2021/12/17 14:46:59;;;;;;;24.58;12.52;;;3.30;99.90;;;;;;5112498;28;20115;-51
2021/12/17 15:00:47;;;;;;;30.73;13.43;;;3.10;99.90;;;;;;5112745;28;20047;-51
2021/12/17 15:03:27;;;;;;;29.95;14.20;;;3.10;99.90;;;;;;5112363;28;20174;-53
2021/12/17 15:06:01;;;;;;;28.88;14.25;;;3.00;99.90;;;;;;5112174;28;20270;-51
2021/12/17 15:08:29;;;;;;;27.23;13.30;;;3.00;99.90;;;;;;5111161;28;20453;-51
2021/12/17 15:10:57;;;;;;;24.75;12.65;;;3.00;99.90;;;;;;5112275;28;20552;-50
2021/12/17 15:13:23;;;;;;;28.73;13.85;;;2.90;99.90;;;;;;5112512;28;20040;-51
2021/12/17 15:15:52;;;;;;;28.38;14.25;;;3.00;99.90;;;;;;5111668;28;20047;-53
2021/12/17 15:18:19;;;;;;;30.55;15.38;;;3.10;99.90;;;;;;5116731;22;20223;-56
2021/12/17 15:20:50;;;;;;;36.10;16.70;;;3.10;99.90;;;;;;5080176;28;20074;-53
2021/12/17 15:23:20;;;;;;;32.88;15.48;;;3.00;99.90;;;;;;5071100;28;20147;-55
2021/12/17 15:25:48;;;;;;;31.38;13.98;;;3.00;99.90;;;;;;5070932;28;20552;-54
2021/12/17 15:28:18;;;;;;;28.33;13.77;;;2.90;99.90;;;;;;5053556;28;20044;-53
2021/12/17 15:30:48;;;;;;;28.70;14.38;;;2.90;99.90;;;;;;5071611;28;20037;-54
2021/12/17 15:33:16;;;;;;;27.15;13.80;;;2.90;99.90;;;;;;5053859;28;20048;-55
2021/12/17 15:35:44;;;;;;;31.23;16.00;;;2.80;99.90;;;;;;5070651;28;20052;-56
2021/12/17 15:38:12;;;;;;;31.67;15.18;;;2.80;99.90;;;;;;5071454;28;20592;-56
2021/12/17 15:40:44;;;;;;;39.85;19.98;;;2.80;99.90;;;;;;5070983;28;20052;-53
2021/12/17 15:43:11;;;;;;;41.35;18.52;;;2.90;99.90;;;;;;5071560;28;20040;-55
2021/12/17 15:45:40;;;;;;;;;;;2.90;99.90;;;;;;5071533;28;20040;-54
2021/12/17 15:48:08;;;;;;;35.63;16.67;;;2.80;99.90;;;;;;5071571;28;19957;-56
2021/12/17 15:50:55;;;;;;;;;;;2.90;99.90;;;;;;5071087;28;20047;-56
2021/12/17 15:53:22;;;;;;;36.08;16.75;;;2.90;99.90;;;;;;5071406;28;19920;-56
2021/12/17 15:55:49;;;;;;;33.20;15.60;;;2.90;99.90;;;;;;5070489;28;20045;-56
2021/12/17 15:58:16;;;;;;;42.38;19.02;;;2.90;99.90;;;;;;5071059;28;20048;-54
2021/12/17 16:00:48;;;;;;;31.77;14.77;;;2.90;99.90;;;;;;5070834;28;20045;-56
2021/12/17 16:03:19;;;;;;;30.25;14.35;;;2.80;99.90;;;;;;5071144;28;20048;-53
2021/12/17 16:05:47;;;;;;;29.45;15.05;;;2.80;99.90;;;;;;5070852;28;20045;-56
2021/12/17 16:08:14;;;;;;;;;;;2.80;99.90;;;;;;5071193;28;20048;-56
2021/12/17 16:11:11;;;;;;;29.98;15.55;;;2.80;99.90;;;;;;5071357;28;20002;-55
2021/12/17 16:21:47;;;;;;;33.83;16.75;;;2.80;99.90;;;;;;5087720;28;20553;-54
2021/12/17 16:24:14;;;;;;;24.63;10.82;;;2.80;99.90;;;;;;5091124;28;20078;-58
2021/12/17 16:30:40;;;;;;;29.90;14.25;;;2.70;99.90;;;;;;5095256;28;20491;-54
2021/12/17 16:33:07;;;;;;;35.42;16.38;;;2.70;99.90;;;;;;5095118;28;20040;-55
2021/12/17 16:35:34;;;;;;;31.88;15.18;;;2.80;99.90;;;;;;5094200;28;20056;-55
2021/12/17 16:38:01;;;;;;;32.40;16.02;;;2.70;99.90;;;;;;5095008;28;20052;-57
2021/12/17 16:40:28;;;;;;;38.22;16.38;;;2.70;99.90;;;;;;5094754;28;20369;-50